Time;durP1;ratioP1;P1;durP2;ratioP2;P2;SDS_P1;SDS_P2;PMS_P1;PMS_P2;Temp;Humidity;BMP_temperature;BMP_pressure;BME280_temperature;BME280_humidity;BME280_pressure;Samples;Min_cycle;Max_cycle;Signal;HPM_P1;HPM_P2
2022/10/29 00:00:42;;;;;;;20.10;14.60;;;;;;;11.67;86.17;100290.05;104460;1288;22557;-82
2022/10/29 00:03:09;;;;;;;19.20;13.10;;;;;;;11.64;86.12;100288.42;104443;1306;25928;-82
2022/10/29 00:05:35;;;;;;;23.90;12.80;;;;;;;11.61;85.78;100288.63;104420;1310;22446;-82
2022/10/29 00:08:02;;;;;;;;;;;;;;;11.58;85.58;100281.90;104358;1309;22504;-83
2022/10/29 00:10:29;;;;;;;18.70;12.40;;;;;;;11.53;85.55;100278.27;104620;1289;23769;-83
2022/10/29 00:13:01;;;;;;;21.20;14.00;;;;;;;11.48;85.39;100272.52;104700;1302;22481;-83
2022/10/29 00:15:28;;;;;;;17.40;12.60;;;;;;;11.44;85.41;100271.38;104842;1310;22465;-84
2022/10/29 00:17:54;;;;;;;20.00;12.40;;;;;;;11.39;85.29;100265.80;104630;1306;22471;-82
2022/10/29 00:20:22;;;;;;;18.00;12.00;;;;;;;11.34;85.07;100262.21;104565;1310;25082;-83
2022/10/29 00:22:52;;;;;;;17.30;12.90;;;;;;;11.28;85.12;100259.69;104754;1295;22436;-82
2022/10/29 00:25:20;;;;;;;16.90;12.90;;;;;;;11.23;85.44;100258.95;106792;1289;23242;-86
2022/10/29 00:27:47;;;;;;;14.90;11.80;;;;;;;11.18;85.41;100253.17;106743;1297;22141;-86
2022/10/29 00:30:13;;;;;;;;;;;;;;;11.14;85.28;100247.09;106820;1296;22368;-86
2022/10/29 00:32:40;;;;;;;16.60;12.10;;;;;;;11.09;85.43;100247.89;104817;1281;25313;-87
2022/10/29 00:35:07;;;;;;;;;;;;;;;11.03;85.46;100240.29;104404;1310;22535;-87
2022/10/29 00:37:34;;;;;;;16.00;11.20;;;;;;;10.98;85.48;100242.70;104400;1304;23440;-87
2022/10/29 00:40:02;;;;;;;15.50;12.10;;;;;;;10.92;85.31;100235.67;104441;1285;25297;-87
2022/10/29 00:42:29;;;;;;;18.80;13.20;;;;;;;10.88;85.62;100234.54;104423;1287;23210;-86
2022/10/29 00:44:55;;;;;;;;;;;;;;;10.83;85.67;100231.71;104689;1307;22463;-86
2022/10/29 00:47:27;;;;;;;23.20;14.20;;;;;;;10.78;85.70;100229.60;104560;1304;22595;-85
2022/10/29 00:50:09;;;;;;;27.20;16.30;;;;;;;10.71;85.87;100229.35;104448;1310;22510;-85
2022/10/29 00:52:38;;;;;;;35.80;18.70;;;;;;;10.64;85.65;100230.52;104390;1310;22489;-85
2022/10/29 00:55:06;;;;;;;36.70;19.10;;;;;;;10.58;85.74;100227.23;104401;1290;23146;-85
2022/10/29 00:57:37;;;;;;;31.30;17.40;;;;;;;10.53;85.96;100226.91;104267;1311;22538;-86
2022/10/29 01:00:05;;;;;;;28.80;16.80;;;;;;;10.46;86.02;100222.55;104175;1307;22763;-85
2022/10/29 01:02:32;;;;;;;23.20;14.90;;;;;;;10.43;86.17;100221.63;104312;1288;25282;-86
2022/10/29 01:04:59;;;;;;;26.40;14.80;;;;;;;10.39;86.23;100219.25;104572;1288;22497;-89
2022/10/29 01:07:26;;;;;;;23.30;16.50;;;;;;;10.33;86.13;100221.21;104698;1298;22519;-89
2022/10/29 01:09:53;;;;;;;;;;;;;;;10.29;86.30;100227.52;104555;1287;22524;-89
2022/10/29 01:12:38;;;;;;;22.00;14.60;;;;;;;10.22;86.58;100226.90;104571;1311;22536;-89
2022/10/29 01:15:39;;;;;;;23.40;15.20;;;;;;;10.16;86.50;100227.04;104478;1304;23525;-89
2022/10/29 01:18:16;;;;;;;19.80;13.90;;;;;;;10.09;86.65;100228.30;104614;1310;22461;-90
2022/10/29 01:21:04;;;;;;;18.40;13.30;;;;;;;10.04;86.44;100232.54;104899;1306;23690;-89
2022/10/29 01:23:53;;;;;;;23.10;14.80;;;;;;;9.98;86.70;100227.27;104277;1312;24043;-89
2022/10/29 01:26:51;;;;;;;19.30;14.10;;;;;;;9.93;86.72;100228.05;104605;1297;24269;-89
2022/10/29 01:29:56;;;;;;;20.40;14.10;;;;;;;9.88;86.65;100226.02;104695;1294;22590;-90
2022/10/29 01:32:56;;;;;;;24.20;13.40;;;;;;;9.82;86.92;100222.15;104724;1288;22504;-90
2022/10/29 01:35:37;;;;;;;19.60;12.40;;;;;;;9.79;87.28;100223.10;104516;1303;22513;-90
2022/10/29 01:38:10;;;;;;;19.50;12.60;;;;;;;9.76;87.55;100222.73;104595;1295;22510;-89
2022/10/29 01:40:55;;;;;;;20.20;12.70;;;;;;;9.73;87.65;100225.91;104574;1296;25243;-90
2022/10/29 01:43:36;;;;;;;17.80;12.50;;;;;;;9.70;87.89;100224.33;104520;1310;24227;-89
2022/10/29 01:46:07;;;;;;;16.80;13.00;;;;;;;9.64;87.63;100223.17;104488;1291;25282;-89
2022/10/29 01:48:36;;;;;;;15.90;12.80;;;;;;;9.62;87.49;100218.03;106800;1302;22121;-90
2022/10/29 01:51:07;;;;;;;20.00;12.50;;;;;;;9.57;87.57;100218.25;106583;1302;22119;-87
2022/10/29 01:53:34;;;;;;;15.40;11.60;;;;;;;9.50;87.13;100207.91;106673;1302;22211;-88
2022/10/29 01:56:01;;;;;;;18.20;11.90;;;;;;;9.48;87.12;100203.35;106064;1284;24916;-89
2022/10/29 01:58:28;;;;;;;;;;;;;;;9.43;86.89;100201.61;104535;1294;22448;-89
2022/10/29 02:01:07;;;;;;;20.30;13.00;;;;;;;9.36;87.17;100196.63;104512;1296;22505;-88
2022/10/29 02:03:45;;;;;;;20.00;14.00;;;;;;;9.34;87.36;100201.63;104785;1296;22540;-88
2022/10/29 02:06:38;;;;;;;18.00;12.10;;;;;;;9.30;87.59;100201.41;104584;1304;22502;-88
2022/10/29 02:09:15;;;;;;;19.30;11.80;;;;;;;9.29;87.73;100196.04;103825;1309;24294;-88
2022/10/29 02:12:10;;;;;;;21.40;13.60;;;;;;;9.26;87.80;100194.40;103895;1310;24350;-88
2022/10/29 02:14:46;;;;;;;15.80;12.10;;;;;;;9.25;88.15;100194.20;104056;1294;22485;-88
2022/10/29 02:17:13;;;;;;;16.30;12.70;;;;;;;9.24;88.40;100186.55;104176;1307;24285;-89
2022/10/29 02:19:40;;;;;;;14.80;11.70;;;;;;;9.23;88.42;100181.88;103840;1315;22544;-88
2022/10/29 02:22:07;;;;;;;19.80;13.60;;;;;;;9.23;88.64;100181.21;104014;1309;22999;-90
2022/10/29 02:24:33;;;;;;;;;;;;;;;9.21;88.65;100183.20;104275;1315;22507;-89
2022/10/29 02:27:00;;;;;;;19.80;14.00;;;;;;;9.20;88.67;100185.02;104129;1301;23691;-89
2022/10/29 02:29:27;;;;;;;;;;;;;;;9.18;88.84;100183.20;104027;1315;24365;-88
2022/10/29 02:31:54;;;;;;;17.90;12.20;;;;;;;9.16;88.82;100192.52;104008;1309;22491;-89
2022/10/29 02:34:20;;;;;;;;;;;;;;;9.13;89.06;100193.85;104166;1315;25381;-89
2022/10/29 02:36:47;;;;;;;18.70;10.10;;;;;;;9.12;89.12;100190.98;104336;1310;22601;-88
2022/10/29 02:39:14;;;;;;;;;;;;;;;9.10;89.15;100189.40;104108;1311;24384;-89
2022/10/29 02:41:41;;;;;;;18.70;13.60;;;;;;;9.10;89.26;100190.16;104360;1314;22547;-89
2022/10/29 02:44:07;;;;;;;;;;;;;;;9.09;89.33;100182.91;104266;1315;22471;-89
2022/10/29 02:46:38;;;;;;;15.70;11.70;;;;;;;9.08;89.19;100177.89;104385;1310;22484;-89
2022/10/29 02:49:05;;;;;;;17.60;12.50;;;;;;;9.02;88.87;100169.89;104663;1287;22515;-88
2022/10/29 02:53:44;;;;;;;17.20;13.20;;;;;;;8.99;88.61;100169.48;99740;1328;546791;-52
2022/10/29 02:56:11;;;;;;;;;;;;;;;8.94;88.61;100167.46;101769;1296;22484;-53
2022/10/29 02:58:38;;;;;;;17.30;12.50;;;;;;;8.92;88.96;100166.29;101711;1319;22508;-52
2022/10/29 03:01:05;;;;;;;;;;;;;;;8.90;88.78;100170.08;101755;1308;25361;-53
2022/10/29 03:03:32;;;;;;;18.50;13.10;;;;;;;8.87;88.93;100166.13;101635;1291;24798;-54
2022/10/29 03:05:59;;;;;;;;;;;;;;;8.84;88.89;100164.58;101459;1296;22490;-54
2022/10/29 03:08:26;;;;;;;22.90;12.70;;;;;;;8.82;88.95;100166.49;101207;1308;935138;-53
2022/10/29 03:10:53;;;;;;;;;;;;;;;8.79;89.13;100160.84;101824;1294;24771;-52
2022/10/29 03:13:20;;;;;;;19.50;13.40;;;;;;;8.78;89.29;100156.29;105927;1311;22098;-53
2022/10/29 03:15:47;;;;;;;;;;;;;;;8.75;89.21;100152.95;106342;1310;22355;-53
2022/10/29 03:18:14;;;;;;;28.60;12.80;;;;;;;8.71;89.11;100153.57;106360;1303;22136;-54
2022/10/29 03:20:41;;;;;;;19.20;12.60;;;;;;;8.66;88.93;100153.72;106293;1312;22134;-53
2022/10/29 03:23:08;;;;;;;24.00;15.10;;;;;;;8.64;89.03;100155.48;106414;1309;22199;-53
2022/10/29 03:25:35;;;;;;;15.80;13.30;;;;;;;8.64;89.16;100152.98;106282;1304;22322;-53
2022/10/29 03:28:03;;;;;;;21.40;13.80;;;;;;;8.65;89.37;100151.09;106379;1309;22184;-54
2022/10/29 03:30:30;;;;;;;;;;;;;;;8.64;89.24;100143.20;106236;1304;23031;-54
2022/10/29 03:32:57;;;;;;;23.50;14.90;;;;;;;8.63;88.97;100144.09;106283;1309;22273;-53
2022/10/29 03:35:24;;;;;;;34.90;19.10;;;;;;;8.61;88.86;100138.77;106338;1287;22127;-54
2022/10/29 03:37:51;;;;;;;;;;;;;;;8.60;89.09;100141.27;106307;1311;22399;-54
2022/10/29 03:40:18;;;;;;;48.40;22.80;;;;;;;8.59;89.09;100139.58;106328;1301;22176;-54
2022/10/29 03:42:45;;;;;;;39.10;20.90;;;;;;;8.59;89.23;100132.77;106258;1303;22146;-53
2022/10/29 03:45:11;;;;;;;37.90;19.50;;;;;;;8.56;89.41;100129.17;106414;1309;22112;-54
2022/10/29 03:47:38;;;;;;;;;;;;;;;8.59;89.45;100137.83;106332;1304;23594;-53
2022/10/29 03:50:05;;;;;;;105.90;56.10;;;;;;;8.59;89.48;100136.36;106246;1309;23048;-53
2022/10/29 03:52:32;;;;;;;162.70;89.90;;;;;;;8.59;89.58;100134.64;106310;1310;23105;-53
2022/10/29 03:54:59;;;;;;;116.90;60.90;;;;;;;8.60;89.68;100127.16;106191;1310;22353;-54
2022/10/29 03:57:25;;;;;;;;;;;;;;;8.58;89.44;100119.45;106303;1309;22535;-53
2022/10/29 03:59:52;;;;;;;37.50;22.80;;;;;;;8.54;89.21;100114.61;106389;1309;22505;-54
2022/10/29 04:02:19;;;;;;;;;;;;;;;8.49;88.95;100113.90;106410;1295;23257;-54
2022/10/29 04:04:46;;;;;;;27.10;17.70;;;;;;;8.45;89.06;100116.29;106257;1311;22124;-54
2022/10/29 04:07:13;;;;;;;24.70;15.50;;;;;;;8.43;89.26;100111.70;106311;1309;22211;-54
2022/10/29 04:09:39;;;;;;;;;;;;;;;8.43;89.47;100110.55;106186;1312;22465;-54
2022/10/29 04:12:07;;;;;;;28.20;16.80;;;;;;;8.42;89.54;100113.02;106199;1311;22215;-54
2022/10/29 04:14:33;;;;;;;75.60;39.20;;;;;;;8.42;89.45;100116.49;106337;1310;23384;-53
2022/10/29 04:17:00;;;;;;;;;;;;;;;8.42;89.62;100118.49;102750;1312;22601;-53
2022/10/29 04:19:27;;;;;;;68.70;34.80;;;;;;;8.41;89.56;100122.67;101767;1295;22507;-54
2022/10/29 04:21:54;;;;;;;;;;;;;;;8.40;89.52;100123.45;101787;1295;24924;-53
2022/10/29 04:24:40;;;;;;;65.40;35.10;;;;;;;8.38;89.57;100119.38;101785;1305;25676;-53
2022/10/29 04:27:27;;;;;;;82.00;42.00;;;;;;;8.34;89.57;100113.52;101690;1287;22699;-53
2022/10/29 04:30:14;;;;;;;87.20;43.00;;;;;;;8.31;89.30;100115.36;106304;1311;23183;-54
2022/10/29 04:32:41;;;;;;;;;;;;;;;8.28;89.18;100111.84;106225;1312;22394;-54
2022/10/29 04:35:08;;;;;;;74.90;38.60;;;;;;;8.21;89.02;100105.84;106176;1295;22895;-54
2022/10/29 04:37:34;;;;;;;64.60;33.20;;;;;;;8.21;89.11;100115.87;106180;1299;22286;-54
2022/10/29 04:40:01;;;;;;;;;;;;;;;8.19;89.26;100115.77;106152;1304;22404;-54
2022/10/29 04:42:28;;;;;;;48.50;28.50;;;;;;;8.19;89.63;100106.37;106359;1310;22159;-54
2022/10/29 04:44:54;;;;;;;48.10;25.60;;;;;;;8.16;89.59;100096.25;106261;1312;22469;-54
2022/10/29 04:47:21;;;;;;;;;;;;;;;8.14;89.52;100091.60;106277;1296;22376;-54
2022/10/29 04:49:48;;;;;;;33.30;18.40;;;;;;;8.13;89.73;100093.77;106197;1301;22142;-54
2022/10/29 04:52:15;;;;;;;35.90;17.90;;;;;;;8.12;89.97;100101.09;106277;1312;22488;-54
2022/10/29 04:54:41;;;;;;;;;;;;;;;8.12;90.05;100102.23;106294;1312;22880;-54
2022/10/29 04:57:08;;;;;;;23.70;16.00;;;;;;;8.13;90.22;100104.47;106237;1303;22125;-54
2022/10/29 04:59:35;;;;;;;;;;;;;;;8.13;90.49;100103.30;106256;1304;22452;-55
2022/10/29 05:02:01;;;;;;;22.80;14.80;;;;;;;8.15;90.51;100110.29;106378;1310;22128;-55
2022/10/29 05:04:28;;;;;;;24.00;15.30;;;;;;;8.16;90.52;100109.61;106190;1297;23067;-55
2022/10/29 05:06:55;;;;;;;;;;;;;;;8.18;90.65;100103.30;106257;1310;23284;-55
2022/10/29 05:09:21;;;;;;;21.20;14.90;;;;;;;8.18;90.72;100095.61;106199;1295;23454;-55
2022/10/29 05:11:48;;;;;;;22.00;14.80;;;;;;;8.19;90.63;100090.41;106270;1295;22213;-55
2022/10/29 05:14:15;;;;;;;;;;;;;;;8.20;90.68;100081.64;106128;1291;23190;-55
2022/10/29 05:16:42;;;;;;;22.30;14.40;;;;;;;8.20;90.85;100081.05;103446;1294;25248;-54
2022/10/29 05:19:08;;;;;;;;;;;;;;;8.22;90.88;100076.55;101794;1302;22473;-52
2022/10/29 05:21:35;;;;;;;21.40;13.30;;;;;;;8.24;91.17;100077.35;101832;1308;22487;-53
2022/10/29 05:24:02;;;;;;;21.10;14.90;;;;;;;8.26;91.44;100076.91;101865;1295;24899;-54
2022/10/29 05:26:31;;;;;;;21.40;14.70;;;;;;;8.28;91.58;100081.02;101863;1302;23083;-53
2022/10/29 05:28:57;;;;;;;25.40;15.10;;;;;;;8.31;91.70;100084.80;106278;1304;22375;-55
2022/10/29 05:31:24;;;;;;;23.60;16.00;;;;;;;8.35;91.83;100087.36;106218;1312;22130;-55
2022/10/29 05:33:51;;;;;;;36.50;18.60;;;;;;;8.35;92.18;100082.91;106228;1308;22343;-53
2022/10/29 05:36:21;;;;;;;50.90;25.40;;;;;;;8.44;92.32;100088.85;106286;1312;22407;-54
2022/10/29 05:38:48;;;;;;;;;;;;;;;8.49;92.36;100093.79;106358;1311;23338;-53
2022/10/29 05:41:15;;;;;;;63.50;33.50;;;;;;;8.54;92.49;100089.24;106267;1304;22178;-54
2022/10/29 05:43:41;;;;;;;;;;;;;;;8.60;92.66;100087.71;106369;1289;23519;-54
2022/10/29 05:46:08;;;;;;;39.80;25.20;;;;;;;8.65;92.83;100083.87;106237;1310;23072;-54
2022/10/29 05:48:35;;;;;;;76.30;44.10;;;;;;;8.69;92.75;100083.13;106387;1312;22148;-51
2022/10/29 05:51:01;;;;;;;;;;;;;;;8.75;92.74;100082.05;106205;1311;22400;-51
2022/10/29 05:53:28;;;;;;;31.10;19.70;;;;;;;8.81;92.89;100086.92;106258;1297;22171;-51
2022/10/29 05:55:57;;;;;;;29.00;18.70;;;;;;;8.87;93.03;100079.61;106777;1296;22853;-51
2022/10/29 05:58:24;;;;;;;27.70;17.80;;;;;;;8.93;93.08;100073.95;106747;1298;22104;-51
2022/10/29 06:00:50;;;;;;;;;;;;;;;8.99;93.16;100073.70;106792;1288;22385;-52
2022/10/29 06:03:19;;;;;;;22.70;15.60;;;;;;;9.07;93.37;100073.88;106763;1303;22468;-52
2022/10/29 06:05:46;;;;;;;30.00;17.30;;;;;;;9.15;93.66;100071.98;106734;1303;22958;-52
2022/10/29 06:08:13;;;;;;;28.20;18.00;;;;;;;9.24;93.69;100069.16;106760;1287;22234;-53
2022/10/29 06:10:39;;;;;;;;;;;;;;;9.33;93.68;100069.00;106842;1287;23476;-50
2022/10/29 06:13:14;;;;;;;23.30;15.10;;;;;;;9.41;93.73;100066.21;106758;1287;22265;-51
2022/10/29 06:15:41;;;;;;;27.30;17.50;;;;;;;9.50;93.79;100066.84;106738;1306;22175;-51
2022/10/29 06:18:08;;;;;;;;;;;;;;;9.58;93.65;100069.20;106804;1296;22443;-51
2022/10/29 06:20:35;;;;;;;21.10;15.10;;;;;;;9.67;93.59;100070.47;106740;1282;22233;-52
2022/10/29 06:23:02;;;;;;;20.00;14.70;;;;;;;9.75;93.61;100072.78;106719;1297;22189;-52
2022/10/29 06:25:29;;;;;;;;;;;;;;;9.83;93.53;100066.75;106776;1304;22416;-53
2022/10/29 06:28:10;;;;;;;21.10;14.90;;;;;;;9.91;93.20;100071.87;106729;1306;22146;-52
2022/10/29 06:30:37;;;;;;;24.30;15.00;;;;;;;10.00;93.12;100068.08;106722;1303;22253;-53
2022/10/29 06:33:04;;;;;;;;;;;;;;;10.09;92.97;100067.83;106764;1306;22414;-53
2022/10/29 06:35:31;;;;;;;22.20;14.50;;;;;;;10.16;92.79;100070.27;106748;1289;22102;-52
2022/10/29 06:37:58;;;;;;;;;;;;;;;10.24;92.75;100071.33;106790;1296;22427;-52
2022/10/29 06:40:25;;;;;;;22.90;14.90;;;;;;;10.33;92.43;100061.98;106725;1304;23147;-52
2022/10/29 06:42:59;;;;;;;24.00;14.90;;;;;;;10.42;92.56;100057.70;106781;1288;22839;-52
2022/10/29 06:45:27;;;;;;;27.20;17.50;;;;;;;10.50;92.01;100048.17;106723;1304;22158;-51
2022/10/29 06:47:54;;;;;;;26.50;16.60;;;;;;;10.58;92.00;100051.16;106710;1296;22339;-51
2022/10/29 06:50:21;;;;;;;26.90;18.70;;;;;;;10.67;91.61;100044.09;106751;1289;22276;-51
2022/10/29 06:53:06;;;;;;;32.30;21.70;;;;;;;10.74;91.22;100039.98;106740;1306;22353;-51
2022/10/29 06:55:33;;;;;;;24.80;16.00;;;;;;;10.81;90.87;100030.14;106784;1293;22271;-51
2022/10/29 06:58:01;;;;;;;36.90;23.70;;;;;;;10.85;90.53;100023.77;106757;1287;22133;-52
2022/10/29 07:00:28;;;;;;;55.40;34.30;;;;;;;10.89;90.11;100019.27;106959;1300;22308;-53
2022/10/29 07:02:55;;;;;;;53.60;33.90;;;;;;;10.94;89.79;100017.27;107002;1300;22220;-53
2022/10/29 07:05:23;;;;;;;29.50;19.80;;;;;;;11.00;89.62;100009.77;106993;1299;22169;-52
2022/10/29 07:07:56;;;;;;;;;;;;;;;11.04;89.48;100011.90;107004;1299;23203;-53
2022/10/29 07:10:25;;;;;;;29.00;18.50;;;;;;;11.05;88.99;100005.88;107055;1299;22189;-54
2022/10/29 07:12:51;;;;;;;30.00;21.00;;;;;;;11.06;89.07;100003.54;107056;1299;22282;-53
2022/10/29 07:15:18;;;;;;;;;;;;;;;11.08;88.88;100009.15;107036;1286;23090;-55
2022/10/29 07:18:01;;;;;;;67.50;45.70;;;;;;;11.12;88.89;100000.20;106966;1299;22129;-55
2022/10/29 07:20:30;;;;;;;28.20;19.60;;;;;;;11.16;88.80;100007.52;106953;1300;22994;-53
2022/10/29 07:22:56;;;;;;;22.40;16.50;;;;;;;11.19;88.58;100009.27;107011;1300;23182;-53
2022/10/29 07:25:23;;;;;;;;;;;;;;;11.23;88.62;100008.72;107046;1292;22413;-53
2022/10/29 07:27:50;;;;;;;23.70;14.70;;;;;;;11.26;88.55;100005.70;106972;1287;22218;-53
2022/10/29 07:30:17;;;;;;;23.60;15.40;;;;;;;11.30;88.39;100003.09;107031;1300;22240;-53
2022/10/29 07:32:43;;;;;;;;;;;;;;;11.35;88.37;99999.84;107062;1292;23256;-53
2022/10/29 07:35:10;;;;;;;100.60;68.60;;;;;;;11.37;88.24;100002.55;106975;1300;23103;-53
2022/10/29 07:37:37;;;;;;;;;;;;;;;11.41;88.06;100005.79;107035;1290;22331;-55
2022/10/29 07:40:04;;;;;;;45.20;29.70;;;;;;;11.43;88.03;99999.17;106976;1300;22975;-55
2022/10/29 07:42:31;;;;;;;31.50;23.30;;;;;;;11.47;87.83;100000.26;106973;1299;22236;-55
2022/10/29 07:44:58;;;;;;;27.50;16.70;;;;;;;11.51;87.81;99997.88;106989;1299;22119;-55
2022/10/29 07:47:24;;;;;;;;;;;;;;;11.55;87.53;99991.69;106977;1292;22362;-54
2022/10/29 07:49:51;;;;;;;27.80;16.00;;;;;;;11.57;87.46;100004.20;106982;1300;22150;-54
2022/10/29 07:52:18;;;;;;;;;;;;;;;11.56;86.98;100008.41;106969;1285;22359;-55
2022/10/29 07:54:45;;;;;;;24.50;15.80;;;;;;;11.59;86.86;100002.55;107006;1279;23426;-54
2022/10/29 07:57:11;;;;;;;;;;;;;;;11.60;86.91;99991.38;107033;1285;22425;-54
2022/10/29 07:59:38;;;;;;;22.80;14.10;;;;;;;11.62;86.90;99995.88;106969;1279;22908;-54
2022/10/29 08:02:05;;;;;;;;;;;;;;;11.63;87.05;99998.75;106998;1300;22414;-55
2022/10/29 08:04:31;;;;;;;20.80;13.90;;;;;;;11.69;87.16;99999.13;107011;1301;22122;-54
2022/10/29 08:06:58;;;;;;;;;;;;;;;11.76;87.40;99993.73;106968;1300;22368;-55
2022/10/29 08:09:25;;;;;;;223.70;154.70;;;;;;;11.84;87.13;99991.44;106995;1300;22220;-55
2022/10/29 08:11:51;;;;;;;;;;;;;;;11.92;86.86;99984.00;107002;1302;22410;-56
2022/10/29 08:14:18;;;;;;;28.20;18.30;;;;;;;12.00;87.06;99982.06;107001;1284;22784;-55
2022/10/29 08:16:48;;;;;;;27.50;16.70;;;;;;;12.09;86.80;99979.38;107058;1300;22144;-55
2022/10/29 08:19:15;;;;;;;;;;;;;;;12.17;86.75;99975.42;107075;1279;22355;-55
2022/10/29 08:21:41;;;;;;;19.30;14.30;;;;;;;12.27;86.74;99972.64;106964;1291;22165;-55
2022/10/29 08:24:08;;;;;;;;;;;;;;;12.38;86.56;99975.74;106994;1293;22454;-55
2022/10/29 08:26:35;;;;;;;19.50;11.70;;;;;;;12.48;86.50;99980.70;106977;1303;22093;-55
2022/10/29 08:29:02;;;;;;;14.80;11.00;;;;;;;12.57;85.77;99981.82;106946;1296;22259;-55
2022/10/29 08:31:29;;;;;;;19.30;13.20;;;;;;;12.63;85.27;99987.45;106950;1300;22333;-55
2022/10/29 08:33:56;;;;;;;16.60;11.80;;;;;;;12.69;84.94;99983.14;106978;1296;23029;-55
2022/10/29 08:36:22;;;;;;;;;;;;;;;12.72;84.66;99973.05;106956;1301;22414;-54
2022/10/29 08:38:49;;;;;;;18.60;11.40;;;;;;;12.81;84.51;99976.18;106981;1300;22358;-55
2022/10/29 08:41:35;;;;;;;16.60;11.60;;;;;;;12.87;84.34;99966.42;107021;1297;22191;-55
2022/10/29 08:44:33;;;;;;;18.20;11.50;;;;;;;12.94;84.16;99963.11;106979;1300;22251;-55
2022/10/29 08:47:03;;;;;;;18.00;10.70;;;;;;;13.04;84.13;99953.80;106943;1291;22219;-55
2022/10/29 08:50:03;;;;;;;23.90;13.80;;;;;;;13.12;83.99;99944.95;106878;1303;22392;-55
2022/10/29 08:52:32;;;;;;;18.90;12.20;;;;;;;13.20;83.70;99945.90;106539;1297;23104;-55
2022/10/29 08:55:09;;;;;;;19.70;12.00;;;;;;;13.29;83.67;99950.05;106461;1297;22152;-55
2022/10/29 08:57:37;;;;;;;;;;;;;;;13.38;83.64;99941.41;106562;1306;23262;-55
2022/10/29 09:00:14;;;;;;;20.60;12.10;;;;;;;13.49;83.70;99942.98;106441;1305;22295;-55
2022/10/29 09:02:41;;;;;;;21.90;13.10;;;;;;;13.62;83.57;99950.70;106461;1308;22236;-55
2022/10/29 09:05:15;;;;;;;21.50;13.00;;;;;;;13.75;83.29;99950.27;106506;1297;22260;-55
2022/10/29 09:07:42;;;;;;;18.00;11.20;;;;;;;13.87;82.71;99944.77;106482;1308;22814;-55
2022/10/29 09:10:21;;;;;;;19.50;13.20;;;;;;;13.97;82.12;99942.67;106532;1291;22180;-55
2022/10/29 09:13:03;;;;;;;46.90;27.00;;;;;;;14.05;81.59;99940.60;106603;1304;22292;-55
2022/10/29 09:15:30;;;;;;;30.80;19.50;;;;;;;14.12;81.09;99937.29;106591;1297;22238;-56
2022/10/29 09:18:17;;;;;;;30.20;16.60;;;;;;;14.19;80.65;99936.35;106605;1300;22210;-56
2022/10/29 09:21:18;;;;;;;22.20;13.90;;;;;;;14.25;80.31;99932.20;106591;1306;22158;-56
2022/10/29 09:23:54;;;;;;;27.70;18.50;;;;;;;14.31;80.07;99919.98;106558;1306;22203;-56
2022/10/29 09:26:24;;;;;;;23.40;12.20;;;;;;;14.34;79.65;99915.00;104390;1290;25274;-55
2022/10/29 09:29:03;;;;;;;20.70;13.20;;;;;;;14.36;79.44;99916.09;106039;1313;22227;-56
2022/10/29 09:31:39;;;;;;;20.40;12.20;;;;;;;14.39;79.62;99912.15;106869;1303;22122;-56
2022/10/29 09:34:17;;;;;;;22.00;11.40;;;;;;;14.43;79.32;99916.45;106893;1306;22862;-56
2022/10/29 09:36:45;;;;;;;20.40;11.20;;;;;;;14.48;79.18;99916.90;106824;1306;22241;-57
2022/10/29 09:39:14;;;;;;;19.40;12.40;;;;;;;14.52;79.06;99910.54;106964;1306;22134;-57
2022/10/29 09:41:41;;;;;;;18.90;11.10;;;;;;;14.55;78.72;99905.02;107003;1305;22119;-57
2022/10/29 09:44:14;;;;;;;18.00;13.40;;;;;;;14.59;78.70;99889.80;106940;1304;22142;-57
2022/10/29 09:46:54;;;;;;;33.20;16.70;;;;;;;14.60;78.54;99874.66;106956;1282;22197;-57
2022/10/29 09:49:33;;;;;;;121.80;82.20;;;;;;;14.68;78.48;99877.67;106966;1302;22258;-53
2022/10/29 09:52:04;;;;;;;25.40;17.40;;;;;;;14.72;78.16;99875.14;106952;1306;22285;-53
2022/10/29 09:54:31;;;;;;;19.70;11.60;;;;;;;14.81;78.07;99878.92;106903;1306;22812;-52
2022/10/29 09:56:58;;;;;;;20.50;11.40;;;;;;;14.90;77.71;99871.32;103737;1291;25529;-53
2022/10/29 09:59:37;;;;;;;16.10;10.40;;;;;;;14.97;77.55;99859.02;102752;1289;22690;-53
2022/10/29 10:02:41;;;;;;;14.80;10.20;;;;;;;15.03;77.11;99852.68;102521;1294;22471;-52
2022/10/29 10:05:11;;;;;;;16.40;9.80;;;;;;;15.10;76.69;99855.75;102811;1291;24214;-51
2022/10/29 10:07:41;;;;;;;15.90;8.90;;;;;;;15.13;76.26;99854.42;102597;1296;25283;-53
2022/10/29 10:10:21;;;;;;;21.30;15.10;;;;;;;15.15;76.20;99851.27;102768;1296;25424;-53
2022/10/29 10:12:49;;;;;;;25.10;18.20;;;;;;;15.17;76.17;99845.39;106985;1306;22105;-52
2022/10/29 10:15:23;;;;;;;18.70;13.20;;;;;;;15.19;76.13;99846.32;106955;1300;22235;-52
2022/10/29 10:17:57;;;;;;;21.50;11.50;;;;;;;15.22;75.95;99850.70;106968;1298;22131;-53
2022/10/29 10:20:40;;;;;;;18.00;11.00;;;;;;;15.25;75.80;99837.03;106985;1301;22169;-53
2022/10/29 10:23:26;;;;;;;16.60;11.80;;;;;;;15.27;75.59;99826.05;106860;1287;22157;-53
2022/10/29 10:25:57;;;;;;;14.50;10.90;;;;;;;15.30;75.66;99814.05;107008;1304;23194;-53
2022/10/29 10:28:30;;;;;;;19.80;11.90;;;;;;;15.31;75.56;99814.48;106903;1305;22157;-54
2022/10/29 10:31:03;;;;;;;20.40;13.00;;;;;;;15.32;75.37;99816.39;106876;1302;22154;-53
2022/10/29 10:33:31;;;;;;;16.70;12.40;;;;;;;15.33;75.49;99802.11;107057;1302;22110;-54
2022/10/29 10:36:03;;;;;;;19.30;11.50;;;;;;;15.30;75.58;99770.00;107036;1297;22151;-53
2022/10/29 10:38:46;;;;;;;18.40;12.20;;;;;;;15.31;75.31;99740.95;106998;1306;22134;-54
2022/10/29 10:41:14;;;;;;;18.30;11.20;;;;;;;15.29;75.64;99749.05;106876;1301;22125;-54
2022/10/29 10:43:45;;;;;;;20.80;11.10;;;;;;;15.26;75.95;99752.59;106871;1302;22134;-55
2022/10/29 10:46:15;;;;;;;16.90;11.40;;;;;;;15.25;76.44;99768.89;106853;1284;22126;-54
2022/10/29 10:48:42;;;;;;;16.50;10.80;;;;;;;15.21;76.70;99775.23;106925;1302;22695;-54
2022/10/29 10:51:32;;;;;;;16.20;10.70;;;;;;;15.24;77.05;99779.98;107007;1300;22213;-54
2022/10/29 10:54:00;;;;;;;18.60;11.90;;;;;;;15.25;77.02;99775.98;106968;1292;22117;-54
2022/10/29 10:56:27;;;;;;;18.60;11.90;;;;;;;15.25;77.35;99761.42;106993;1300;22133;-54
2022/10/29 10:59:02;;;;;;;18.30;10.60;;;;;;;15.23;77.39;99738.93;106852;1302;22128;-54
2022/10/29 11:01:38;;;;;;;15.80;9.80;;;;;;;15.27;77.46;99736.94;106865;1300;22231;-54
2022/10/29 11:04:26;;;;;;;18.50;10.90;;;;;;;15.27;77.76;99735.02;106883;1300;22338;-54
2022/10/29 11:06:54;;;;;;;17.10;11.70;;;;;;;15.27;78.25;99736.71;103842;1306;22559;-52
2022/10/29 11:09:36;;;;;;;14.90;10.60;;;;;;;15.27;78.60;99737.59;102749;1281;26474;-53
2022/10/29 11:12:39;;;;;;;22.50;12.10;;;;;;;15.25;78.91;99741.50;102790;1292;22712;-52
2022/10/29 11:15:11;;;;;;;49.00;32.40;;;;;;;15.23;79.10;99744.52;106086;1296;22157;-54
2022/10/29 11:17:44;;;;;;;96.00;63.50;;;;;;;15.21;79.30;99750.30;106361;1309;22488;-55
2022/10/29 11:20:22;;;;;;;24.90;14.10;;;;;;;15.20;79.44;99744.59;106451;1307;22407;-54
2022/10/29 11:23:01;;;;;;;22.00;12.40;;;;;;;15.21;79.63;99740.91;106479;1308;22170;-56
2022/10/29 11:25:31;;;;;;;17.80;10.30;;;;;;;15.23;79.75;99735.52;106331;1300;22281;-57
2022/10/29 11:28:10;;;;;;;16.20;9.40;;;;;;;15.25;79.52;99737.05;106179;1307;22291;-58
2022/10/29 11:30:41;;;;;;;17.40;9.70;;;;;;;15.26;79.42;99729.75;106381;1306;22163;-57
2022/10/29 11:33:36;;;;;;;14.20;9.40;;;;;;;15.28;79.31;99716.78;106247;1306;22152;-57
2022/10/29 11:36:20;;;;;;;13.60;9.00;;;;;;;15.32;79.24;99698.34;104576;1301;22849;-56
2022/10/29 11:38:58;;;;;;;13.70;9.90;;;;;;;15.35;79.20;99678.39;101967;1293;22513;-56
2022/10/29 11:41:50;;;;;;;14.30;9.80;;;;;;;15.36;79.00;99671.03;101990;1304;22509;-55
2022/10/29 11:44:19;;;;;;;12.50;9.30;;;;;;;15.37;78.87;99681.63;102043;1293;25310;-55